createdAt,value
2018-05-19T12:20:50.978Z,9.80
2018-05-19T12:23:18.440Z,5.27
2018-05-19T12:25:45.994Z,6.87
2018-05-19T12:28:14.231Z,8.63
2018-05-19T12:30:41.731Z,7.03
2018-05-19T12:33:09.997Z,7.50
2018-05-19T12:35:39.890Z,6.90
2018-05-19T12:38:08.546Z,9.77
2018-05-19T12:40:35.988Z,8.57
2018-05-19T12:43:03.468Z,7.60
2018-05-19T12:45:30.941Z,8.37
2018-05-19T12:47:58.422Z,8.63
2018-05-19T12:50:25.877Z,7.87
2018-05-19T12:52:53.390Z,8.63
2018-05-19T12:55:20.870Z,9.00
2018-05-19T12:57:48.362Z,9.40
2018-05-19T13:00:16.609Z,9.13
2018-05-19T13:02:44.146Z,6.20
2018-05-19T13:05:11.606Z,9.30
2018-05-19T13:07:39.090Z,10.13
2018-05-19T13:10:06.581Z,8.43
2018-05-19T13:12:34.070Z,8.40
2018-05-19T13:15:01.518Z,7.70
2018-05-19T13:17:28.994Z,8.53
2018-05-19T13:19:56.468Z,10.90
2018-05-19T13:22:23.932Z,11.40
2018-05-19T13:24:51.478Z,9.20
2018-05-19T13:27:19.038Z,9.50
2018-05-19T13:29:46.514Z,9.77
2018-05-19T13:32:14.742Z,9.03
2018-05-19T13:34:42.242Z,8.63
2018-05-19T13:37:09.692Z,8.70
2018-05-19T13:39:37.963Z,11.27
2018-05-19T13:42:05.413Z,8.30
2018-05-19T13:44:32.908Z,11.27
2018-05-19T13:47:01.131Z,9.00
2018-05-19T13:49:28.587Z,9.70
2018-05-19T13:51:56.177Z,8.30
2018-05-19T13:54:24.418Z,9.53
2018-05-19T13:56:51.909Z,7.57
2018-05-19T13:59:20.134Z,8.70
2018-05-19T14:01:47.634Z,8.97
2018-05-19T14:04:15.101Z,8.80
2018-05-19T14:06:43.348Z,7.50
2018-05-19T14:09:10.813Z,10.00
2018-05-19T14:11:38.302Z,8.40
2018-05-19T14:14:06.534Z,8.60
2018-05-19T14:16:34.038Z,8.73
2018-05-19T14:19:01.486Z,8.17
2018-05-19T14:21:29.772Z,7.57
2018-05-19T14:23:57.991Z,8.07
2018-05-19T14:26:25.451Z,7.63
2018-05-19T14:28:52.944Z,9.40
2018-05-19T14:31:21.178Z,7.83
2018-05-19T14:33:48.670Z,9.00
2018-05-19T14:36:16.902Z,7.60
2018-05-19T14:38:44.418Z,7.97
2018-05-19T14:41:12.649Z,9.20
2018-05-19T14:43:40.241Z,7.50
2018-05-19T14:46:08.445Z,7.63
2018-05-19T14:48:35.947Z,9.60
2018-05-19T14:51:03.410Z,8.23
2018-05-19T14:53:31.029Z,7.47
2018-05-19T14:55:58.489Z,7.60
2018-05-19T14:58:25.985Z,7.10
2018-05-19T15:00:53.542Z,9.60
2018-05-19T15:03:21.026Z,7.17
2018-05-19T15:05:49.258Z,6.80
2018-05-19T15:08:16.744Z,7.53
2018-05-19T15:10:44.984Z,7.70
2018-05-19T15:13:12.568Z,8.20
2018-05-19T15:15:40.021Z,6.47
2018-05-19T15:18:07.535Z,6.40
2018-05-19T15:20:34.969Z,6.93
2018-05-19T15:23:02.495Z,7.87
2018-05-19T15:25:29.971Z,6.50
2018-05-19T15:27:57.458Z,7.33
2018-05-19T15:30:24.916Z,6.27
2018-05-19T15:32:52.384Z,6.90
2018-05-19T15:35:19.900Z,6.73
2018-05-19T15:37:48.122Z,6.17
2018-05-19T15:40:15.611Z,7.53
2018-05-19T15:42:43.097Z,5.57
2018-05-19T15:45:11.369Z,6.30
2018-05-19T15:47:39.653Z,7.17
2018-05-19T15:50:07.078Z,6.30
2018-05-19T15:52:34.627Z,7.33
2018-05-19T15:55:02.238Z,6.30
2018-05-19T15:57:29.692Z,6.03
2018-05-19T15:59:57.154Z,6.20
2018-05-19T16:02:24.626Z,6.83
2018-05-19T16:04:52.086Z,7.17
2018-05-19T16:07:19.554Z,6.90
2018-05-19T16:09:47.815Z,5.60
2018-05-19T16:12:15.286Z,6.40
2018-05-19T16:14:42.754Z,7.17
2018-05-19T16:17:11.045Z,6.23
2018-05-19T16:19:38.519Z,11.50
2018-05-19T16:22:06.036Z,10.37
2018-05-19T16:24:33.501Z,12.40
2018-05-19T16:27:00.981Z,17.63
2018-05-19T16:29:29.209Z,12.70
2018-05-19T16:31:56.699Z,25.10
2018-05-19T16:34:24.272Z,39.93
2018-05-19T16:36:52.590Z,37.97
2018-05-19T16:39:20.594Z,39.20
2018-05-19T16:41:48.066Z,31.77
2018-05-19T16:44:15.541Z,31.93
2018-05-19T16:46:43.779Z,22.30
2018-05-19T16:49:11.270Z,18.97
2018-05-19T16:51:38.771Z,13.70
2018-05-19T16:54:06.300Z,13.37
2018-05-19T16:56:33.775Z,13.63
2018-05-19T16:59:01.267Z,13.33
2018-05-19T17:01:28.753Z,9.63
2018-05-19T17:03:57.113Z,8.43
2018-05-19T17:06:25.338Z,10.00
2018-05-19T17:08:52.932Z,9.47
2018-05-19T17:11:20.394Z,9.97
2018-05-19T17:13:48.666Z,9.53
2018-05-19T17:16:16.929Z,8.20
2018-05-19T17:18:44.426Z,10.20
2018-05-19T17:21:11.938Z,8.33
2018-05-19T17:23:39.405Z,8.63
2018-05-19T17:26:06.911Z,8.87
2018-05-19T17:28:34.383Z,10.37
2018-05-19T17:31:01.879Z,8.47
2018-05-19T17:33:29.426Z,8.20
2018-05-19T17:35:56.908Z,8.27
2018-05-19T17:38:24.371Z,8.73
2018-05-19T17:40:52.623Z,9.00
2018-05-19T17:43:20.088Z,9.07
2018-05-19T17:45:47.613Z,8.33
2018-05-19T17:48:15.805Z,8.00
2018-05-19T17:50:43.343Z,7.40
2018-05-19T17:53:10.795Z,8.80
2018-05-19T17:55:38.288Z,8.90
2018-05-19T17:58:06.959Z,9.03
2018-05-19T18:00:34.418Z,8.90
2018-05-19T18:03:01.896Z,8.00
2018-05-19T18:05:30.139Z,8.50
2018-05-19T18:07:57.636Z,9.60
2018-05-19T18:10:25.873Z,7.73
2018-05-19T18:12:53.347Z,7.50
2018-05-19T18:15:20.841Z,8.40
2018-05-19T18:17:48.361Z,8.57
2018-05-19T18:20:15.832Z,7.90
2018-05-19T18:22:44.096Z,10.50
2018-05-19T18:25:11.599Z,7.40
2018-05-19T18:27:39.087Z,8.67
2018-05-19T18:30:06.543Z,7.63
2018-05-19T18:32:34.024Z,8.63
2018-05-19T18:35:01.489Z,8.67
2018-05-19T18:37:29.727Z,9.70
2018-05-19T18:39:57.203Z,8.33
2018-05-19T18:42:24.675Z,8.90
2018-05-19T18:44:52.155Z,8.83
2018-05-19T18:47:19.604Z,8.80
2018-05-19T18:49:47.855Z,8.77
2018-05-19T18:52:16.850Z,7.60
2018-05-19T18:54:56.222Z,9.80
2018-05-19T18:57:23.703Z,8.53
2018-05-19T18:59:51.219Z,10.50
2018-05-19T19:02:19.448Z,8.00
2018-05-19T19:04:46.932Z,10.80
2018-05-19T19:07:15.262Z,8.43
2018-05-19T19:09:42.785Z,7.30
2018-05-19T19:12:10.207Z,9.77
2018-05-19T19:14:37.783Z,10.07
2018-05-19T19:17:06.017Z,8.43
2018-05-19T19:19:33.501Z,9.67
2018-05-19T19:22:00.967Z,7.93
2018-05-19T19:24:29.210Z,5.97
2018-05-19T19:26:56.726Z,6.73
2018-05-19T19:29:24.942Z,6.07
2018-05-19T19:31:52.426Z,5.20
2018-05-19T19:34:19.905Z,4.33
2018-05-19T19:36:48.146Z,4.80
2018-05-19T19:39:15.596Z,4.80
2018-05-19T19:41:43.091Z,5.20
2018-05-19T19:44:11.360Z,4.50
2018-05-19T19:46:38.833Z,5.17
2018-05-19T19:49:06.298Z,5.00
2018-05-19T19:51:33.784Z,5.10
2018-05-19T19:54:01.244Z,4.37
2018-05-19T19:56:28.690Z,5.20
2018-05-19T19:58:56.167Z,5.20
2018-05-19T20:01:23.644Z,5.00
2018-05-19T20:03:51.123Z,5.40
2018-05-19T20:06:18.589Z,5.93
2018-05-19T20:08:46.071Z,4.70
2018-05-19T20:11:13.559Z,5.80
2018-05-19T20:13:41.044Z,5.53
2018-05-19T20:16:09.264Z,6.30
2018-05-19T20:18:36.745Z,6.87
2018-05-19T20:21:04.202Z,6.60
2018-05-19T20:23:31.708Z,6.23
2018-05-19T20:25:59.190Z,6.93
2018-05-19T20:28:26.687Z,7.27
2018-05-19T20:30:54.161Z,6.40
2018-05-19T20:33:22.403Z,7.43
2018-05-19T20:35:49.878Z,6.13
2018-05-19T20:38:17.367Z,7.70
2018-05-19T20:40:44.871Z,6.80
2018-05-19T20:43:12.365Z,7.10
2018-05-19T20:45:40.605Z,7.80
2018-05-19T20:48:08.861Z,6.23
2018-05-19T20:50:36.352Z,6.93
2018-05-19T20:53:03.913Z,6.90
2018-05-19T20:55:32.183Z,7.43
2018-05-19T20:57:59.687Z,7.33
2018-05-19T21:00:27.213Z,6.67
2018-05-19T21:02:55.451Z,7.30
2018-05-19T21:05:22.938Z,7.33
2018-05-19T21:07:51.199Z,6.33
2018-05-19T21:10:18.754Z,6.80
2018-05-19T21:12:46.225Z,6.70
2018-05-19T21:15:14.458Z,7.60
2018-05-19T21:17:41.933Z,6.87
2018-05-19T21:20:09.413Z,7.40
2018-05-19T21:22:36.874Z,7.63
2018-05-19T21:25:05.088Z,6.60
2018-05-19T21:27:32.555Z,7.30
2018-05-19T21:30:00.066Z,7.30
2018-05-19T21:32:28.425Z,7.90
2018-05-19T21:34:55.959Z,7.33
2018-05-19T21:37:23.438Z,6.23
2018-05-19T21:39:50.899Z,7.80
2018-05-19T21:42:18.394Z,6.47
2018-05-19T21:44:45.862Z,6.43
2018-05-19T21:47:13.362Z,7.03
2018-05-19T21:49:40.838Z,7.07
2018-05-19T21:52:08.276Z,7.47
2018-05-19T21:54:35.828Z,6.67
2018-05-19T21:57:03.285Z,7.40
2018-05-19T21:59:31.082Z,7.83
2018-05-19T22:01:59.400Z,6.87
2018-05-19T22:04:26.891Z,7.10
2018-05-19T22:06:54.594Z,8.80
2018-05-19T22:09:22.102Z,8.37
2018-05-19T22:11:49.562Z,8.50
2018-05-19T22:14:17.015Z,8.53
2018-05-19T22:16:44.498Z,9.73
2018-05-19T22:19:12.731Z,8.30
2018-05-19T22:21:40.207Z,8.67
2018-05-19T22:24:07.662Z,7.90
2018-05-19T22:26:35.187Z,8.80
2018-05-19T22:29:02.646Z,9.27
2018-05-19T22:31:30.256Z,9.20
2018-05-19T22:33:58.497Z,9.30
2018-05-19T22:36:25.964Z,9.33
2018-05-19T22:38:53.454Z,8.53
2018-05-19T22:41:21.703Z,9.50
2018-05-19T22:43:49.157Z,10.57
2018-05-19T22:46:18.168Z,9.57
2018-05-19T22:48:46.392Z,9.57
2018-05-19T22:51:13.868Z,9.53
2018-05-19T22:53:41.353Z,9.77
2018-05-19T22:56:08.803Z,10.07
2018-05-19T22:58:37.046Z,10.20
2018-05-19T23:01:04.519Z,10.50
2018-05-19T23:03:32.087Z,10.17
2018-05-19T23:05:59.590Z,11.53
2018-05-19T23:08:27.070Z,9.90
2018-05-19T23:10:54.523Z,9.67
2018-05-19T23:13:22.030Z,9.50
2018-05-19T23:15:50.283Z,10.10
2018-05-19T23:18:17.845Z,9.07
2018-05-19T23:20:45.329Z,9.30
2018-05-19T23:23:13.573Z,9.83
2018-05-19T23:25:41.047Z,8.47
2018-05-19T23:28:09.282Z,9.60
2018-05-19T23:30:36.797Z,9.80
2018-05-19T23:33:04.238Z,8.70
2018-05-19T23:35:32.596Z,9.13
2018-05-19T23:38:00.042Z,10.30
2018-05-19T23:40:27.536Z,10.10
2018-05-19T23:42:55.746Z,10.10
2018-05-19T23:45:23.232Z,11.10
2018-05-19T23:47:50.701Z,10.77
2018-05-19T23:50:18.171Z,10.40
2018-05-19T23:52:46.402Z,10.53
2018-05-19T23:55:13.866Z,11.43
2018-05-19T23:57:41.381Z,10.80
